Home   Weather   Australia   Melbourne   Past weeks
Flag for Australia

Past Weather in Melbourne, Victoria, Australia — Yesterday and Last 2 Weeks

Currently: 55 °F. Clear. (Weather station: Melbourne Airport, Australia). See more current weather

Past Weather in Melbourne — Graph

°F

Melbourne Temperature Yesterday

Maximum temperature yesterday: 64 °F (at 2:30 pm)
Minimum temperature yesterday: 39 °F (at 4:30 am)
Average temperature yesterday: 50 °F

High & Low Weather Summary for the Past Weeks

 TemperatureHumidityPressure
High68 °F (May 13, 11:30 am)100% (May 20, 7:00 am)30.51 "Hg (May 20, 7:00 am)
Low39 °F (May 22, 6:00 am)40% (May 27, 1:30 pm)30.15 "Hg (May 13, 3:00 am)
Average52 °F79%30.33 "Hg
* Reported May 12 6:00 pm — May 27 6:30 pm, Melbourne. Weather by CustomWeather, © 2024

Note: Actual official high and low records may vary slightly from our data, if they occured in-between our weather recording intervals... More about our weather records

Melbourne Weather History for the Previous 24 Hours

Scroll right to see more
 ConditionsComfort  
Time TempWeatherWind HumidityBarometerVisibility
6:30 pm
Mon, May 27
55 °FClear.13 mph67%30.27 "HgN/A
6:00 pm55 °FClear.12 mph67%30.27 "Hg10 mi
5:00 pm59 °FSunny.10 mph63%30.27 "Hg10 mi
4:30 pm63 °FSunny.8 mph52%30.24 "Hg10 mi
4:00 pm64 °FSunny.8 mph49%30.24 "Hg10 mi
3:30 pm66 °FSunny.7 mph43%30.24 "Hg10 mi
3:00 pm66 °FSunny.8 mph40%30.24 "Hg10 mi
2:30 pm66 °FSunny.7 mph40%30.24 "Hg10 mi
2:00 pm66 °FSunny.7 mph40%30.24 "Hg10 mi
1:30 pm66 °FSunny.6 mph40%30.27 "Hg10 mi
1:00 pm66 °FSunny.6 mph43%30.27 "Hg10 mi
12:30 pm64 °FPassing clouds.6 mph46%30.27 "HgN/A
12:00 pm63 °FPassing clouds.6 mph45%30.27 "HgN/A
11:30 am63 °FPassing clouds.6 mph45%30.30 "HgN/A
11:00 am61 °FSunny.6 mph52%30.30 "Hg10 mi
10:30 am59 °FSunny.9 mph59%30.30 "Hg10 mi
10:00 am55 °FSunny.10 mph63%30.30 "Hg10 mi
9:30 am52 °FSunny.10 mph67%30.30 "Hg10 mi
8:30 am46 °FSunny.13 mph76%30.30 "Hg10 mi
8:00 am45 °FSunny.13 mph81%30.30 "Hg10 mi
7:30 am41 °FSunny.14 mph87%30.30 "Hg10 mi
7:00 am41 °FClear.14 mph87%30.27 "Hg10 mi
6:30 am43 °FClear.14 mph81%30.27 "Hg10 mi
6:00 am43 °FClear.14 mph81%30.27 "Hg10 mi
5:30 am43 °FClear.14 mph81%30.27 "Hg10 mi
4:30 am43 °FClear.13 mph81%30.27 "Hg10 mi
4:00 am45 °FClear.16 mph81%30.27 "Hg10 mi
3:00 am43 °FClear.10 mph87%30.27 "Hg10 mi
2:30 am43 °FClear.12 mph87%30.27 "Hg10 mi
2:00 am43 °FClear.13 mph87%30.27 "Hg10 mi
1:30 am43 °FClear.10 mph87%30.27 "Hg10 mi
1:00 am45 °FClear.8 mph81%30.27 "Hg10 mi
12:30 am45 °FClear.12 mph81%30.27 "Hg10 mi
12:00 am45 °FClear.10 mph87%30.27 "Hg10 mi
11:30 pm
Sun, May 26
46 °FClear.9 mph82%30.27 "Hg10 mi
11:00 pm46 °FClear.12 mph87%30.27 "Hg10 mi
10:00 pm46 °FPassing clouds.9 mph87%30.27 "HgN/A
9:00 pm46 °FPassing clouds.9 mph87%30.27 "HgN/A
8:30 pm50 °FPassing clouds.8 mph82%30.27 "HgN/A
8:00 pm50 °FClear.6 mph76%30.27 "HgN/A
Weather by CustomWeather, © 2024

See weather overview